Time;durP1;ratioP1;P1;durP2;ratioP2;P2;SDS_P1;SDS_P2;PMS_P1;PMS_P2;Temp;Humidity;BMP_temperature;BMP_pressure;BME280_temperature;BME280_humidity;BME280_pressure;Samples;Min_cycle;Max_cycle;Signal;HPM_P1;HPM_P2
2021/10/18 00:01:26;;;;;;;17.50;14.67;;;10.60;99.90;;;;;;5048354;28;20395;-83
2021/10/18 00:03:52;;;;;;;16.77;14.38;;;10.60;99.90;;;;;;5046701;28;20399;-82
2021/10/18 00:06:18;;;;;;;15.77;14.03;;;10.70;99.90;;;;;;5047547;28;20372;-83
2021/10/18 00:08:43;;;;;;;19.77;15.43;;;10.70;99.90;;;;;;5048093;28;20430;-83
2021/10/18 00:11:09;;;;;;;18.13;14.87;;;10.70;99.90;;;;;;5049322;28;20873;-82
2021/10/18 00:13:34;;;;;;;16.73;15.10;;;10.70;99.90;;;;;;5051280;28;20384;-83
2021/10/18 00:16:00;;;;;;;19.48;15.15;;;10.70;99.90;;;;;;5051978;28;20379;-83
2021/10/18 00:18:26;;;;;;;20.05;16.20;;;10.70;99.90;;;;;;5050334;28;20787;-82
2021/10/18 00:20:52;;;;;;;18.58;15.60;;;10.70;99.90;;;;;;5050657;28;20453;-83
2021/10/18 00:23:18;;;;;;;19.13;15.27;;;10.60;99.90;;;;;;5051510;28;20419;-83
2021/10/18 00:25:43;;;;;;;17.30;15.60;;;10.70;99.90;;;;;;5052108;28;20742;-83
2021/10/18 00:28:09;;;;;;;21.40;17.80;;;10.60;99.90;;;;;;5051326;28;20430;-83
2021/10/18 00:30:35;;;;;;;21.42;17.08;;;10.60;99.90;;;;;;5051550;28;20415;-82
2021/10/18 00:33:00;;;;;;;21.23;16.03;;;10.60;99.90;;;;;;5050317;28;20819;-83
2021/10/18 00:35:26;;;;;;;22.15;16.33;;;10.50;99.90;;;;;;5051906;28;20376;-83
2021/10/18 00:37:51;;;;;;;17.37;15.47;;;10.50;99.90;;;;;;5050005;28;20395;-83
2021/10/18 00:40:17;;;;;;;19.50;14.60;;;10.50;99.90;;;;;;5054760;28;20491;-83
2021/10/18 00:42:43;;;;;;;16.50;14.80;;;10.60;99.90;;;;;;5053259;28;20754;-84
2021/10/18 00:45:09;;;;;;;18.93;15.00;;;10.60;99.90;;;;;;5053366;28;21118;-83
2021/10/18 00:47:36;;;;;;;16.08;14.38;;;10.60;99.90;;;;;;5052213;28;20445;-83
2021/10/18 00:50:04;;;;;;;18.48;15.30;;;10.60;99.90;;;;;;5053103;28;20391;-83
2021/10/18 00:52:29;;;;;;;21.60;13.63;;;10.60;99.90;;;;;;5053357;28;20379;-83
2021/10/18 00:54:55;;;;;;;19.00;14.07;;;10.70;99.90;;;;;;5051266;28;20400;-83
2021/10/18 00:57:21;;;;;;;16.33;13.93;;;10.60;99.90;;;;;;5053852;28;20406;-83
2021/10/18 00:59:48;;;;;;;17.08;14.57;;;10.70;99.90;;;;;;5052321;28;20431;-84
2021/10/18 01:02:14;;;;;;;18.95;15.95;;;10.70;99.90;;;;;;5053967;28;21187;-82
2021/10/18 01:04:40;;;;;;;17.97;15.17;;;10.70;99.90;;;;;;5052194;28;20399;-83
2021/10/18 01:07:06;;;;;;;20.52;15.80;;;10.70;99.90;;;;;;5052953;28;20384;-83
2021/10/18 01:09:32;;;;;;;17.65;15.20;;;10.70;99.90;;;;;;5053429;28;21224;-83
2021/10/18 01:11:57;;;;;;;19.95;16.48;;;10.70;99.90;;;;;;5053866;28;20399;-83
2021/10/18 01:14:23;;;;;;;18.80;16.90;;;10.70;99.90;;;;;;5055035;28;20434;-83
2021/10/18 01:16:49;;;;;;;19.15;17.17;;;10.70;99.90;;;;;;5054927;28;20372;-82
2021/10/18 01:19:17;;;;;;;20.03;17.00;;;10.70;99.90;;;;;;5052312;28;20384;-83
2021/10/18 01:21:44;;;;;;;20.95;18.25;;;10.70;99.90;;;;;;5054613;28;20904;-83
2021/10/18 01:24:10;;;;;;;21.75;17.75;;;10.70;99.90;;;;;;5053643;28;20858;-83
2021/10/18 01:26:36;;;;;;;19.67;16.92;;;10.60;99.90;;;;;;5053095;28;20396;-82
2021/10/18 01:29:02;;;;;;;19.20;15.88;;;10.60;99.90;;;;;;5051913;28;20742;-82
2021/10/18 01:31:27;;;;;;;17.45;14.82;;;10.60;99.90;;;;;;5051220;28;20398;-82
2021/10/18 01:33:53;;;;;;;20.05;14.90;;;10.60;99.90;;;;;;5049718;28;20384;-83
2021/10/18 01:36:18;;;;;;;16.63;13.20;;;10.70;99.90;;;;;;5050270;28;20445;-83
2021/10/18 01:38:44;;;;;;;16.13;13.80;;;10.70;99.90;;;;;;5049825;28;20390;-82
2021/10/18 01:41:10;;;;;;;14.82;13.23;;;10.70;99.90;;;;;;5051425;28;20881;-82
2021/10/18 01:43:36;;;;;;;16.35;13.35;;;10.70;99.90;;;;;;5051036;28;20399;-82
2021/10/18 01:46:01;;;;;;;17.95;13.82;;;10.70;99.90;;;;;;5051574;28;20725;-82
2021/10/18 01:48:27;;;;;;;15.63;13.33;;;10.80;99.90;;;;;;5049555;28;20388;-82
2021/10/18 01:50:53;;;;;;;16.92;12.85;;;10.80;99.90;;;;;;5050426;28;20449;-82
2021/10/18 01:53:18;;;;;;;16.63;13.53;;;10.80;99.90;;;;;;5049524;28;20387;-82
2021/10/18 01:55:44;;;;;;;14.77;13.27;;;10.70;99.90;;;;;;5050782;28;20391;-83
2021/10/18 01:58:11;;;;;;;15.95;13.60;;;10.80;99.90;;;;;;5051135;28;20467;-82
2021/10/18 02:00:38;;;;;;;19.90;13.85;;;10.70;99.90;;;;;;5049612;28;20412;-82
2021/10/18 02:03:04;;;;;;;14.20;11.63;;;10.60;99.90;;;;;;5049227;28;20387;-82
2021/10/18 02:05:29;;;;;;;13.27;11.57;;;10.70;99.90;;;;;;5049975;28;20391;-82
2021/10/18 02:07:55;;;;;;;17.42;12.80;;;10.70;99.90;;;;;;5050673;28;20395;-82
2021/10/18 02:10:21;;;;;;;14.20;12.03;;;10.70;99.90;;;;;;5051037;28;20384;-82
2021/10/18 02:12:47;;;;;;;13.65;12.15;;;10.80;99.90;;;;;;5051271;28;20497;-82
2021/10/18 02:15:13;;;;;;;14.07;11.25;;;10.70;99.90;;;;;;5050538;28;20878;-81
2021/10/18 02:17:39;;;;;;;14.00;11.53;;;10.70;99.90;;;;;;5049798;28;20407;-82
2021/10/18 02:20:08;;;;;;;12.57;11.13;;;10.70;99.90;;;;;;5049656;28;20395;-82
2021/10/18 02:22:34;;;;;;;13.93;11.47;;;10.80;99.90;;;;;;5048841;28;20403;-82
2021/10/18 02:24:59;;;;;;;12.17;10.87;;;10.80;99.90;;;;;;5050160;28;20371;-82
2021/10/18 02:27:25;;;;;;;12.75;10.95;;;10.80;99.90;;;;;;5049310;28;20884;-82
2021/10/18 02:29:51;;;;;;;12.97;11.37;;;10.80;99.90;;;;;;5049093;28;20375;-81
2021/10/18 02:32:17;;;;;;;16.70;11.82;;;10.80;99.90;;;;;;5049243;28;21164;-82
2021/10/18 02:34:42;;;;;;;16.15;12.70;;;10.80;99.90;;;;;;5055302;28;20482;-82
2021/10/18 02:37:08;;;;;;;13.77;11.00;;;10.70;99.90;;;;;;5050796;28;20789;-82
2021/10/18 02:39:33;;;;;;;14.23;11.57;;;10.80;99.90;;;;;;5049849;28;20383;-82
2021/10/18 02:41:59;;;;;;;13.52;12.13;;;10.70;99.90;;;;;;5049738;28;20420;-83
2021/10/18 02:44:24;;;;;;;14.67;11.17;;;10.70;99.90;;;;;;5050342;28;20392;-82
2021/10/18 02:46:50;;;;;;;14.77;11.37;;;10.70;99.90;;;;;;5050102;28;20384;-82
2021/10/18 02:49:16;;;;;;;14.70;11.60;;;10.80;99.90;;;;;;5050875;28;20462;-82
2021/10/18 02:51:41;;;;;;;13.48;11.52;;;10.80;99.90;;;;;;5050673;28;20410;-82
2021/10/18 02:54:08;;;;;;;12.90;11.30;;;10.80;99.90;;;;;;5051158;28;20387;-81
2021/10/18 02:56:34;;;;;;;12.63;11.32;;;10.80;99.90;;;;;;5049063;28;20383;-82
2021/10/18 02:58:59;;;;;;;12.87;11.17;;;10.80;99.90;;;;;;5050461;28;20886;-81
2021/10/18 03:01:25;;;;;;;14.30;11.67;;;10.80;99.90;;;;;;5050983;28;20400;-82
2021/10/18 03:03:51;;;;;;;14.93;11.73;;;10.70;99.90;;;;;;5052035;28;20387;-81
2021/10/18 03:06:16;;;;;;;13.40;11.70;;;10.70;99.90;;;;;;5050742;28;20414;-81
2021/10/18 03:08:42;;;;;;;13.93;11.30;;;10.70;99.90;;;;;;5052800;28;20378;-82
2021/10/18 03:11:07;;;;;;;12.80;11.50;;;10.60;99.90;;;;;;5049761;28;20384;-82
2021/10/18 03:13:33;;;;;;;14.43;11.53;;;10.70;99.90;;;;;;5049543;28;20380;-81
2021/10/18 03:15:59;;;;;;;12.63;10.70;;;10.70;99.90;;;;;;5048629;28;20749;-82
2021/10/18 03:18:25;;;;;;;15.43;12.10;;;10.60;99.90;;;;;;5047357;28;20478;-82
2021/10/18 03:20:50;;;;;;;14.32;11.38;;;10.70;99.90;;;;;;5047028;28;20412;-82
2021/10/18 03:23:16;;;;;;;14.13;10.50;;;10.60;99.90;;;;;;5049116;28;20454;-82
2021/10/18 03:25:41;;;;;;;14.50;11.32;;;10.70;99.90;;;;;;5048995;28;20392;-82
2021/10/18 03:28:07;;;;;;;14.00;10.50;;;10.70;99.90;;;;;;5049277;28;20384;-82
2021/10/18 03:30:33;;;;;;;16.50;12.43;;;10.60;99.90;;;;;;5049392;28;20406;-82
2021/10/18 03:32:59;;;;;;;11.73;10.52;;;10.60;99.90;;;;;;5049191;28;20453;-81
2021/10/18 03:35:25;;;;;;;14.02;10.93;;;10.60;99.90;;;;;;5048604;28;20669;-82
2021/10/18 03:37:51;;;;;;;12.18;9.93;;;10.60;99.90;;;;;;5048631;28;20391;-81
2021/10/18 03:40:16;;;;;;;12.25;10.85;;;10.60;99.90;;;;;;5048921;28;20927;-81
2021/10/18 03:42:42;;;;;;;11.15;9.98;;;10.60;99.90;;;;;;5049210;28;20379;-82
2021/10/18 03:45:09;;;;;;;15.60;11.03;;;10.70;99.90;;;;;;5048896;28;20943;-81
2021/10/18 03:47:35;;;;;;;11.55;10.18;;;10.60;99.90;;;;;;5052138;28;20404;-81
2021/10/18 03:50:01;;;;;;;13.35;10.48;;;10.70;99.90;;;;;;5054723;28;20470;-82
2021/10/18 03:52:26;;;;;;;12.38;9.80;;;10.60;99.90;;;;;;5053642;28;20391;-82
2021/10/18 03:54:52;;;;;;;11.18;9.93;;;10.70;99.90;;;;;;5051926;28;20472;-82
2021/10/18 03:57:18;;;;;;;12.55;10.63;;;10.70;99.90;;;;;;5052740;28;20387;-82
2021/10/18 03:59:43;;;;;;;11.10;9.73;;;10.70;99.90;;;;;;5050670;28;21070;-82
2021/10/18 04:02:09;;;;;;;14.35;11.18;;;10.60;99.90;;;;;;5051154;28;20452;-81
2021/10/18 04:04:36;;;;;;;13.00;11.35;;;10.70;99.90;;;;;;5051897;28;20394;-82
2021/10/18 04:07:02;;;;;;;14.18;11.40;;;10.60;99.90;;;;;;5051471;28;20845;-82
2021/10/18 04:09:28;;;;;;;16.77;12.40;;;10.50;99.90;;;;;;5052354;28;20437;-82
2021/10/18 04:11:53;;;;;;;12.63;10.93;;;10.50;99.90;;;;;;5053780;28;20463;-82
2021/10/18 04:14:19;;;;;;;13.90;11.23;;;10.40;99.90;;;;;;5053992;28;20376;-82
2021/10/18 04:16:45;;;;;;;12.73;10.95;;;10.40;99.90;;;;;;5051527;28;20387;-81
2021/10/18 04:19:10;;;;;;;13.03;10.60;;;10.30;99.90;;;;;;5052383;28;20380;-81
2021/10/18 04:21:36;;;;;;;14.13;11.73;;;10.30;99.90;;;;;;5051543;28;20490;-81
2021/10/18 04:24:02;;;;;;;13.38;11.77;;;10.10;99.90;;;;;;5052079;28;20777;-81
2021/10/18 04:26:28;;;;;;;12.60;10.90;;;10.00;99.90;;;;;;5051678;28;20384;-81
2021/10/18 04:28:54;;;;;;;15.03;11.27;;;9.80;99.90;;;;;;5055430;28;20399;-81
2021/10/18 04:31:20;;;;;;;12.02;10.82;;;9.80;99.90;;;;;;5054853;28;20464;-81
2021/10/18 04:33:46;;;;;;;15.48;11.10;;;9.70;99.90;;;;;;5054796;28;20368;-81
2021/10/18 04:36:11;;;;;;;11.48;10.27;;;9.70;99.90;;;;;;5052510;28;20392;-81
2021/10/18 04:38:37;;;;;;;12.77;11.13;;;9.60;99.90;;;;;;5053498;28;20383;-81
2021/10/18 04:41:03;;;;;;;13.38;10.88;;;9.60;99.90;;;;;;5054214;28;20400;-81
2021/10/18 04:43:28;;;;;;;12.10;10.88;;;9.50;99.90;;;;;;5053002;28;20396;-81
2021/10/18 04:45:54;;;;;;;11.20;10.07;;;9.50;99.90;;;;;;5054532;28;20900;-81
2021/10/18 04:48:19;;;;;;;12.37;11.10;;;9.50;99.90;;;;;;5054942;28;20434;-81
2021/10/18 04:50:45;;;;;;;14.27;11.27;;;9.40;99.90;;;;;;5053654;28;21003;-81
2021/10/18 04:53:10;;;;;;;12.40;11.20;;;9.40;99.90;;;;;;5050273;28;20875;-81
2021/10/18 04:55:36;;;;;;;15.65;12.75;;;9.40;99.90;;;;;;5050522;28;20388;-81
2021/10/18 04:58:04;;;;;;;16.95;13.85;;;9.30;99.90;;;;;;5050175;28;20392;-81
2021/10/18 05:00:35;;;;;;;13.23;11.88;;;9.30;99.90;;;;;;5051852;28;20403;-81
2021/10/18 05:03:01;;;;;;;13.45;12.05;;;9.30;99.90;;;;;;5050067;28;20405;-81
2021/10/18 05:05:27;;;;;;;14.07;11.70;;;9.30;99.90;;;;;;5052120;28;20380;-81
2021/10/18 05:08:07;;;;;;;15.20;12.43;;;9.30;99.90;;;;;;5050502;28;20417;-81
2021/10/18 05:10:34;;;;;;;16.80;13.00;;;9.30;99.90;;;;;;5050269;28;20465;-81
2021/10/18 05:13:00;;;;;;;14.85;12.10;;;9.20;99.90;;;;;;5052081;28;20396;-81
2021/10/18 05:15:26;;;;;;;12.98;11.68;;;9.20;99.90;;;;;;5052519;28;20379;-81
2021/10/18 05:17:52;;;;;;;15.57;13.13;;;9.20;99.90;;;;;;5052947;28;20372;-81
2021/10/18 05:20:17;;;;;;;16.47;13.53;;;9.10;99.90;;;;;;5051794;28;20396;-81
2021/10/18 05:22:43;;;;;;;14.73;12.90;;;9.00;99.90;;;;;;5050563;28;20416;-81
2021/10/18 05:25:09;;;;;;;14.40;12.87;;;9.00;99.90;;;;;;5051340;28;20478;-81
2021/10/18 05:27:38;;;;;;;15.18;12.27;;;9.00;99.90;;;;;;5052513;28;20410;-81
2021/10/18 05:30:05;;;;;;;14.55;12.55;;;9.00;99.90;;;;;;5033949;28;20392;-81
2021/10/18 05:32:31;;;;;;;15.50;11.60;;;9.00;99.90;;;;;;5052180;28;20391;-81
2021/10/18 05:34:57;;;;;;;13.73;12.33;;;9.00;99.90;;;;;;5051511;28;20746;-81
2021/10/18 05:37:23;;;;;;;12.93;11.53;;;9.10;99.90;;;;;;5051879;28;20416;-81
2021/10/18 05:39:48;;;;;;;15.40;12.63;;;9.10;99.90;;;;;;5050872;28;20403;-81
2021/10/18 05:42:14;;;;;;;13.95;11.90;;;9.20;99.90;;;;;;5051125;28;20379;-81
2021/10/18 05:44:40;;;;;;;13.27;11.73;;;9.20;99.90;;;;;;5051066;28;20368;-81
2021/10/18 05:47:05;;;;;;;14.67;12.30;;;9.20;99.90;;;;;;5050045;28;20436;-81
2021/10/18 05:49:31;;;;;;;14.48;12.57;;;9.30;99.90;;;;;;5051065;28;20878;-81
2021/10/18 05:51:57;;;;;;;14.83;12.47;;;9.30;99.90;;;;;;5051489;28;20454;-81
2021/10/18 05:54:23;;;;;;;14.48;12.32;;;9.40;99.90;;;;;;5050722;28;20391;-82
2021/10/18 05:56:50;;;;;;;15.20;11.80;;;9.40;99.90;;;;;;5051259;28;20379;-81
2021/10/18 05:59:16;;;;;;;13.03;11.73;;;9.40;99.90;;;;;;5049734;28;20928;-81
2021/10/18 06:01:42;;;;;;;13.50;12.18;;;9.50;99.90;;;;;;5050574;28;20392;-81
2021/10/18 06:04:08;;;;;;;13.68;12.27;;;9.50;99.90;;;;;;5049698;28;20398;-81
2021/10/18 06:06:35;;;;;;;13.23;11.00;;;9.50;99.90;;;;;;5049732;28;20384;-81
2021/10/18 06:09:01;;;;;;;13.77;12.05;;;9.60;99.90;;;;;;5048071;28;20387;-81
2021/10/18 06:11:28;;;;;;;14.95;11.45;;;9.60;99.90;;;;;;5049265;28;20408;-81
2021/10/18 06:13:53;;;;;;;14.88;11.40;;;9.70;99.90;;;;;;5048417;28;20422;-81
2021/10/18 06:16:22;;;;;;;11.18;10.07;;;9.70;99.90;;;;;;5048256;28;20476;-81
2021/10/18 06:18:48;;;;;;;14.48;11.50;;;9.70;99.90;;;;;;5049620;28;20406;-81
2021/10/18 06:21:15;;;;;;;13.03;10.70;;;9.80;99.90;;;;;;5048459;28;20773;-81
2021/10/18 06:23:42;;;;;;;14.13;10.90;;;9.90;99.90;;;;;;5048442;28;20398;-81
2021/10/18 06:26:10;;;;;;;11.63;10.40;;;9.90;99.90;;;;;;5050112;28;20415;-81
2021/10/18 06:28:41;;;;;;;11.23;10.05;;;9.90;99.90;;;;;;5048440;28;20792;-81
2021/10/18 06:31:07;;;;;;;12.25;10.27;;;9.90;99.90;;;;;;5049913;28;20490;-81
2021/10/18 06:33:34;;;;;;;14.40;10.70;;;10.00;99.90;;;;;;5048427;28;20886;-81
2021/10/18 06:35:59;;;;;;;10.55;9.43;;;10.10;99.90;;;;;;5050456;28;20501;-81
2021/10/18 06:38:25;;;;;;;11.90;9.13;;;10.20;99.90;;;;;;5048580;28;20380;-81
2021/10/18 06:40:51;;;;;;;10.75;9.50;;;10.30;99.90;;;;;;5049222;28;20415;-81
2021/10/18 06:43:18;;;;;;;11.55;9.02;;;10.40;99.90;;;;;;5046790;28;20402;-82
2021/10/18 06:45:45;;;;;;;10.35;9.13;;;10.60;99.90;;;;;;5031840;28;20389;-81
2021/10/18 06:48:14;;;;;;;10.40;8.45;;;10.80;99.90;;;;;;5032291;28;20383;-82
2021/10/18 06:50:43;;;;;;;11.55;8.35;;;11.00;99.90;;;;;;5047712;28;20399;-82
2021/10/18 06:53:16;;;;;;;9.75;7.95;;;11.20;99.90;;;;;;5048032;28;20734;-82
2021/10/18 06:55:42;;;;;;;10.82;7.75;;;11.40;99.90;;;;;;5048474;28;20399;-82
2021/10/18 06:58:08;;;;;;;13.10;8.45;;;11.50;99.90;;;;;;5032050;28;20390;-82
2021/10/18 07:00:35;;;;;;;9.85;8.13;;;11.60;99.90;;;;;;5029358;28;20401;-81
2021/10/18 07:03:01;;;;;;;9.93;6.70;;;11.70;99.90;;;;;;5027973;28;20386;-82
2021/10/18 07:05:27;;;;;;;9.55;6.63;;;11.80;99.90;;;;;;5029217;28;20409;-82
2021/10/18 07:07:52;;;;;;;9.80;6.53;;;11.80;99.90;;;;;;5028805;28;20412;-82
2021/10/18 07:10:18;;;;;;;9.20;6.87;;;11.80;99.90;;;;;;5044513;28;20459;-81
2021/10/18 07:12:44;;;;;;;8.13;6.43;;;11.90;99.90;;;;;;5049650;28;20486;-82
2021/10/18 07:15:09;;;;;;;7.47;5.97;;;12.00;99.90;;;;;;5049344;28;20376;-82
2021/10/18 07:17:35;;;;;;;7.43;5.97;;;12.20;99.90;;;;;;5047599;28;20441;-81
2021/10/18 07:20:02;;;;;;;5.90;5.30;;;12.30;99.90;;;;;;5049224;28;20430;-82
2021/10/18 07:22:41;;;;;;;10.38;5.93;;;12.40;99.90;;;;;;5051690;28;20390;-82
2021/10/18 07:25:07;;;;;;;6.95;5.82;;;12.50;99.90;;;;;;5053413;28;20383;-82
2021/10/18 07:27:33;;;;;;;7.75;5.93;;;12.50;99.90;;;;;;5051787;28;20387;-82
2021/10/18 07:29:58;;;;;;;7.15;5.15;;;12.70;99.90;;;;;;5051604;28;20384;-82
2021/10/18 07:32:24;;;;;;;8.67;4.97;;;12.80;99.90;;;;;;5052912;28;20372;-82
2021/10/18 07:34:51;;;;;;;8.23;5.32;;;12.80;99.90;;;;;;5047015;28;20380;-82
2021/10/18 07:37:23;;;;;;;8.35;5.18;;;12.80;99.90;;;;;;5046577;28;20461;-82
2021/10/18 07:39:49;;;;;;;10.03;5.27;;;12.90;99.90;;;;;;5033415;28;20393;-81
2021/10/18 07:42:14;;;;;;;7.83;4.70;;;13.00;99.90;;;;;;5037979;28;20364;-81
2021/10/18 07:44:41;;;;;;;8.87;4.93;;;13.20;99.90;;;;;;5053659;28;20367;-83
2021/10/18 07:47:07;;;;;;;7.25;4.80;;;13.20;99.90;;;;;;5070802;28;20474;-82
2021/10/18 07:49:36;;;;;;;7.15;5.10;;;13.30;99.90;;;;;;5067332;28;20438;-82
2021/10/18 07:52:04;;;;;;;8.23;5.18;;;13.40;99.90;;;;;;5061963;28;20402;-82
2021/10/18 07:54:30;;;;;;;6.65;4.93;;;13.50;99.90;;;;;;5048771;28;20543;-82
2021/10/18 07:56:56;;;;;;;7.75;4.60;;;13.60;99.90;;;;;;5062071;28;20395;-83
2021/10/18 07:59:22;;;;;;;7.50;4.47;;;13.70;99.90;;;;;;5052673;28;20379;-82
2021/10/18 08:01:48;;;;;;;8.03;4.87;;;13.80;99.90;;;;;;5051919;28;20395;-82
2021/10/18 08:04:13;;;;;;;8.68;4.78;;;13.80;99.90;;;;;;5051168;28;20383;-82
2021/10/18 08:06:39;;;;;;;7.05;4.70;;;13.70;99.90;;;;;;5051710;28;20732;-83
2021/10/18 08:09:08;;;;;;;8.57;4.87;;;13.70;99.90;;;;;;5051419;28;20387;-83
2021/10/18 08:11:34;;;;;;;5.72;4.22;;;13.80;99.90;;;;;;5051645;28;20388;-81
2021/10/18 08:13:59;;;;;;;8.35;4.43;;;14.00;99.90;;;;;;5051431;28;20384;-81
2021/10/18 08:16:25;;;;;;;6.70;3.77;;;14.10;99.90;;;;;;5051882;28;20407;-83
2021/10/18 08:18:52;;;;;;;7.25;4.10;;;14.30;99.90;;;;;;5051265;28;20391;-82
2021/10/18 08:21:18;;;;;;;6.45;4.50;;;14.40;99.90;;;;;;5050947;28;20816;-82
2021/10/18 08:23:43;;;;;;;7.05;4.45;;;14.50;99.90;;;;;;5051580;28;20376;-82
2021/10/18 08:26:09;;;;;;;7.20;4.10;;;14.50;99.90;;;;;;5051119;28;20415;-82
2021/10/18 08:28:35;;;;;;;7.15;3.95;;;14.60;99.90;;;;;;5051596;28;20376;-81
2021/10/18 08:31:00;;;;;;;5.60;3.80;;;14.70;99.90;;;;;;5049786;28;20388;-81
2021/10/18 08:33:26;;;;;;;7.20;3.93;;;14.70;99.90;;;;;;5050831;28;20398;-82
2021/10/18 08:35:52;;;;;;;7.68;3.78;;;14.90;99.90;;;;;;5049498;28;20384;-81
2021/10/18 08:38:46;;;;;;;5.23;3.37;;;14.90;99.90;;;;;;5051449;28;20376;-81
2021/10/18 08:46:06;;;;;;;7.80;3.73;;;15.10;99.90;;;;;;5050869;28;20391;-81
2021/10/18 08:48:32;;;;;;;6.68;3.95;;;15.30;99.90;;;;;;5050947;28;20529;-81
2021/10/18 08:50:58;;;;;;;6.45;3.45;;;;;;;;;;5049363;28;20407;-81
2021/10/18 08:53:24;;;;;;;6.70;3.53;;;15.50;99.90;;;;;;5049838;28;20383;-81
2021/10/18 08:55:49;;;;;;;7.45;4.28;;;15.60;99.90;;;;;;5050941;28;20396;-82
2021/10/18 08:58:16;;;;;;;7.23;4.07;;;15.60;99.90;;;;;;5050688;28;20380;-81
2021/10/18 09:00:43;;;;;;;7.47;4.35;;;15.50;99.90;;;;;;5050250;28;20414;-82
2021/10/18 09:03:20;;;;;;;6.22;3.95;;;15.40;99.90;;;;;;5049650;28;20811;-80
2021/10/18 09:05:46;;;;;;;6.63;4.25;;;15.30;99.90;;;;;;5043249;28;20469;-81
2021/10/18 09:08:32;;;;;;;7.30;4.10;;;15.00;99.90;;;;;;5047209;28;20395;-81
2021/10/18 09:11:24;;;;;;;7.25;4.53;;;14.90;99.90;;;;;;5030652;28;20384;-82
2021/10/18 09:13:52;;;;;;;7.67;4.53;;;14.80;99.90;;;;;;5047792;28;20387;-81
2021/10/18 09:16:28;;;;;;;8.38;4.63;;;14.80;99.90;;;;;;5046818;28;20384;-82
2021/10/18 09:19:14;;;;;;;7.10;4.53;;;14.60;99.90;;;;;;5046777;28;21471;-82
2021/10/18 09:21:47;;;;;;;8.30;4.73;;;14.50;99.90;;;;;;5047949;28;20912;-82
2021/10/18 09:24:16;;;;;;;8.90;4.68;;;14.30;99.90;;;;;;5048851;28;20394;-82
2021/10/18 09:26:43;;;;;;;8.87;4.57;;;14.40;99.90;;;;;;5046850;28;20403;-83
2021/10/18 09:29:14;;;;;;;8.68;4.68;;;14.40;99.90;;;;;;5045680;28;20870;-82
2021/10/18 09:31:56;;;;;;;7.40;4.70;;;14.40;99.90;;;;;;5048517;28;21073;-82
2021/10/18 09:34:31;;;;;;;8.32;4.50;;;14.70;99.90;;;;;;5044554;28;20395;-82
2021/10/18 09:37:13;;;;;;;8.40;4.57;;;15.00;99.90;;;;;;5047820;28;20737;-81
2021/10/18 09:39:44;;;;;;;8.25;4.20;;;15.40;99.90;;;;;;5047311;28;20386;-82
2021/10/18 09:42:12;;;;;;;7.27;4.27;;;15.70;99.90;;;;;;5048121;28;20445;-82
2021/10/18 09:48:02;;;;;;;8.55;4.97;;;15.80;99.90;;;;;;5045809;28;20448;-81
2021/10/18 10:51:15;;;;;;;7.70;3.78;;;15.10;99.90;;;;;;5043564;28;20500;-82
2021/10/18 10:53:51;;;;;;;5.55;3.55;;;14.90;99.90;;;;;;5044208;28;21043;-84
2021/10/18 10:56:16;;;;;;;9.15;3.88;;;14.80;99.90;;;;;;5044865;28;20404;-82
2021/10/18 11:01:45;;;;;;;8.73;3.63;;;14.70;99.90;;;;;;5041728;28;20434;-82
2021/10/18 11:04:29;;;;;;;8.70;3.85;;;14.70;99.90;;;;;;5044491;28;20375;-83
2021/10/18 11:07:06;;;;;;;7.00;3.75;;;14.60;99.90;;;;;;5041283;28;20770;-81
2021/10/18 11:09:41;;;;;;;6.70;4.13;;;14.60;99.90;;;;;;5040888;28;20384;-84
2021/10/18 11:12:19;;;;;;;8.15;3.92;;;14.60;99.90;;;;;;5046513;28;20404;-81
2021/10/18 11:15:08;;;;;;;7.28;4.20;;;14.60;99.90;;;;;;5045675;28;20466;-82
2021/10/18 11:17:47;;;;;;;6.13;3.42;;;14.60;99.90;;;;;;5048097;28;20450;-81
2021/10/18 11:20:16;;;;;;;6.30;3.50;;;14.70;99.90;;;;;;5044340;28;20411;-82
2021/10/18 11:22:51;;;;;;;7.47;3.92;;;14.80;99.90;;;;;;5044229;28;20402;-83
2021/10/18 11:25:23;;;;;;;6.40;3.63;;;14.90;99.90;;;;;;5047309;28;20399;-83
2021/10/18 11:27:55;;;;;;;5.85;3.60;;;15.20;99.90;;;;;;5046122;28;20378;-83
2021/10/18 11:30:23;;;;;;;8.57;3.55;;;15.50;99.90;;;;;;5045886;28;20478;-83
2021/10/18 11:32:57;;;;;;;5.63;3.17;;;15.60;99.90;;;;;;5046389;28;20457;-81
2021/10/18 11:35:23;;;;;;;7.38;3.45;;;15.80;99.90;;;;;;5048351;28;20443;-81
2021/10/18 11:38:05;;;;;;;7.78;3.05;;;15.90;99.90;;;;;;5048679;28;20437;-84
2021/10/18 11:40:50;;;;;;;7.88;2.80;;;16.00;99.90;;;;;;5048593;28;20412;-83
2021/10/18 11:43:19;;;;;;;5.00;2.97;;;16.00;99.90;;;;;;5031298;28;20416;-83
2021/10/18 11:45:46;;;;;;;4.72;2.90;;;16.10;99.90;;;;;;5035061;28;20388;-84
2021/10/18 11:48:14;;;;;;;4.70;2.80;;;16.20;99.90;;;;;;5031323;28;20382;-82
2021/10/18 11:50:47;;;;;;;5.37;3.07;;;16.20;99.90;;;;;;5029384;28;20836;-82
2021/10/18 11:53:36;;;;;;;4.33;3.20;;;16.10;99.90;;;;;;5030055;28;20381;-83
2021/10/18 11:56:03;;;;;;;5.03;2.90;;;16.00;99.90;;;;;;5024418;28;21484;-82
2021/10/18 11:58:34;;;;;;;3.92;2.80;;;16.00;99.90;;;;;;5045912;28;20780;-82
2021/10/18 12:01:02;;;;;;;5.97;3.58;;;16.10;99.90;;;;;;5046278;28;20477;-83
2021/10/18 12:03:30;;;;;;;4.72;2.92;;;16.30;99.90;;;;;;5046154;28;20845;-83
2021/10/18 12:05:58;;;;;;;3.88;2.60;;;16.40;99.90;;;;;;5047287;28;20521;-82
2021/10/18 12:08:29;;;;;;;4.25;2.50;;;16.40;99.90;;;;;;5048809;28;20376;-84
2021/10/18 12:10:57;;;;;;;5.13;2.50;;;16.70;99.90;;;;;;5051070;28;20872;-83
2021/10/18 12:13:25;;;;;;;5.10;2.72;;;16.60;99.90;;;;;;5049681;28;20866;-84
2021/10/18 12:15:53;;;;;;;4.82;2.70;;;16.70;99.90;;;;;;5048752;28;20376;-83
2021/10/18 12:18:29;;;;;;;6.53;2.70;;;16.60;99.90;;;;;;5043463;28;20368;-83
2021/10/18 12:21:00;;;;;;;6.30;2.35;;;16.70;99.90;;;;;;5048997;28;20541;-82
2021/10/18 12:23:45;;;;;;;6.28;2.60;;;16.90;99.90;;;;;;5049921;28;20380;-82
2021/10/18 12:26:12;;;;;;;7.75;2.80;;;17.00;99.90;;;;;;5049807;28;20436;-83
2021/10/18 12:28:41;;;;;;;6.20;2.60;;;17.00;99.90;;;;;;5050555;28;20788;-82
2021/10/18 12:31:24;;;;;;;4.63;2.33;;;17.10;99.90;;;;;;5052890;28;20379;-84
2021/10/18 12:34:01;;;;;;;4.70;2.40;;;17.20;99.90;;;;;;5051505;28;20806;-84
2021/10/18 12:36:28;;;;;;;6.20;2.70;;;17.40;99.90;;;;;;5050872;28;20380;-85
2021/10/18 12:38:54;;;;;;;5.90;2.60;;;17.30;99.90;;;;;;5050303;28;20459;-84
2021/10/18 12:41:20;;;;;;;6.10;2.70;;;17.10;99.90;;;;;;5051936;28;20407;-85
2021/10/18 12:43:47;;;;;;;6.25;2.50;;;16.90;99.90;;;;;;5051739;28;20516;-84
2021/10/18 12:46:18;;;;;;;4.60;2.55;;;16.90;99.90;;;;;;5051957;28;20386;-85
2021/10/18 12:49:02;;;;;;;7.00;2.92;;;16.90;99.90;;;;;;5051765;28;20470;-82
2021/10/18 12:51:34;;;;;;;6.85;2.70;;;16.90;99.90;;;;;;5050649;28;20402;-82
2021/10/18 12:54:41;;;;;;;5.97;2.65;;;17.00;99.90;;;;;;5051415;28;21062;-84
2021/10/18 12:57:10;;;;;;;3.15;2.22;;;17.00;99.90;;;;;;5011336;28;20406;-83
2021/10/18 12:59:38;;;;;;;3.65;2.45;;;17.00;99.90;;;;;;5043665;28;20395;-84
2021/10/18 13:02:24;;;;;;;6.00;2.30;;;17.20;99.90;;;;;;5049351;28;20454;-83
2021/10/18 13:05:07;;;;;;;5.30;2.78;;;17.30;99.90;;;;;;5066510;28;20459;-82
2021/10/18 13:07:33;;;;;;;4.18;2.30;;;17.50;99.90;;;;;;5057363;28;20939;-84
2021/10/18 13:09:59;;;;;;;5.00;2.75;;;17.50;99.90;;;;;;5058346;28;20391;-83
2021/10/18 13:12:26;;;;;;;4.38;2.20;;;17.50;99.90;;;;;;5061626;28;20378;-82
2021/10/18 13:14:56;;;;;;;4.30;2.38;;;17.70;99.90;;;;;;5052151;28;21023;-82
2021/10/18 13:17:23;;;;;;;6.20;2.22;;;17.70;99.90;;;;;;5060357;28;20395;-83
2021/10/18 13:19:49;;;;;;;4.72;2.40;;;17.70;99.90;;;;;;5060938;28;20408;-83
2021/10/18 13:22:15;;;;;;;6.75;2.42;;;17.70;99.90;;;;;;5051192;28;20369;-83
2021/10/18 13:24:40;;;;;;;4.63;2.20;;;17.80;99.90;;;;;;5033701;28;20391;-83
2021/10/18 13:27:06;;;;;;;3.70;2.13;;;17.90;99.90;;;;;;5061444;28;20402;-82
2021/10/18 13:29:33;;;;;;;6.47;2.63;;;18.00;99.90;;;;;;5058073;28;20375;-83
2021/10/18 13:32:02;;;;;;;4.18;2.28;;;18.00;99.90;;;;;;5053194;28;20392;-84
2021/10/18 13:34:28;;;;;;;3.40;2.00;;;17.80;99.90;;;;;;5062691;28;20448;-83
2021/10/18 13:36:54;;;;;;;5.30;2.47;;;17.90;99.90;;;;;;5052670;28;20374;-83
2021/10/18 13:39:20;;;;;;;4.10;2.15;;;17.90;99.90;;;;;;5058383;28;20389;-83
2021/10/18 13:41:45;;;;;;;5.37;1.90;;;17.70;99.90;;;;;;5058525;28;20418;-85
2021/10/18 13:44:11;;;;;;;3.60;1.95;;;17.50;99.90;;;;;;5045050;28;20949;-83
2021/10/18 13:46:36;;;;;;;3.17;1.70;;;17.20;99.90;;;;;;5061400;28;20388;-84
2021/10/18 13:49:03;;;;;;;4.20;1.90;;;17.20;99.90;;;;;;5054201;28;20377;-83
2021/10/18 13:51:30;;;;;;;2.83;1.65;;;17.20;99.90;;;;;;5054743;28;20392;-83
2021/10/18 13:53:56;;;;;;;2.45;1.70;;;17.20;99.90;;;;;;5035102;28;20396;-84